Terminal Aerodrome Forecast
Issued by NWS Sterling, VA

Current Version | Previous Version | Graphics & Text | Print | Product List | Glossary On
Versions: 1 2 3 4 5 6 7 8 9 10 11 12 13 14 15 16 17 18 19 20 21 22
000
FTUS41 KLWX 241726
TAFDCA
TAF
KDCA 241726Z 2418/2518 06011G18KT 5SM -RA OVC035
     FM242000 05011G20KT 5SM -RA OVC015
     FM242200 05011G19KT 5SM -RA SCT005 OVC008
     FM251300 05012G19KT 3SM -RA OVC008
     FM251500 05013G20KT 5SM -RA OVC008=

USA.gov is the U.S. government's official web portal to all federal, state and local government web resources and services.